Maryland AWOS List, Phone Numbers

USA |  
| Search AWOS

Rocky Mountain States: Montana | Wyoming | Colorado | New Mexico

Complete weather reports: Maryland

Legend: KFNL = METAR available Follow your local AWOS on AV Mobile = METAR available on AV Mobile
Station Maryland Location Frequency Phone
KAPGFAA ID APG, KAPG 242050Z 32008KT 7SM BKN120 20/07 A2986 Follow KAPG on AV Mobile Phillips Army Air Field / Aberdeen
K61WICAO ID K61W Annapolis Coast Guard Station
KNAKICAO ID KNAK, KNAK 242254Z AUTO 28005KT 10SM CLR 17/03 A2990 RMK AO2 SLP126 T01670028 Follow KNAK on AV Mobile ANNAPOLIS US NAVAL ACADEMY
KLWXICAO ID KLWX Baltimore / DC Nexrad
KDMHICAO ID KDMH, KDMH 242254Z AUTO 18/01 A2990 RMK AO1 SLP123 T01780006 Follow KDMH on AV Mobile BALTIMORE DOWNTOWN
KMTNFAA ID MTN, AWOS-3, KMTN 242255Z 00000KT 10SM SKC 16/05 A2991 Follow KMTN on AV Mobile Baltimore / Martin 410-682-8848
KBWIFAA ID BWI, ASOS, KBWI 242254Z 30003KT 10SM FEW160 BKN250 16/02 A2990 Follow KBWI on AV Mobile BALTIMORE-WASHINGTON INTERNATIONAL 410-691-1278
4MDFAA ID 4MD, Belfort PIER 7
KCGEFAA ID CGE, AWOS-3, KCGE 242336Z AUTO 28005KT 10SM CLR 15/06 A2991 RMK AO1 Follow KCGE on AV Mobile CAMBRIDGE 120.675 410-228-7559
KADWFAA ID ADW, KADW 242258Z AUTO 28009KT 10SM CLR 16/04 A2991 RMK AO2 SLP135 T01560044 $ Follow KADW on AV Mobile Camp Springs / Andrews Air Force Base
W32FAA ID W32, Belfort WASHINGTON EXECUTIVE/HYDE FIELD
KCGSFAA ID CGS, AWOS-3, KCGS 242335Z AUTO 00000KT 10SM CLR 12/06 A2992 RMK AO1 Follow KCGS on AV Mobile COLLEGE PARK 121.225 301-864-5497
K66WICAO ID K66W Cove Point Coast Guard Light Station
KCBEFAA ID CBE, AWOS-3, KCBE 242338Z AUTO 00000KT 10SM CLR 14/02 A3003 Follow KCBE on AV Mobile Cumberland, Greater Cumberland Regional Airport 128.625 304-738-0451
KESNFAA ID ESN, AWOS-3, KESN 242150Z 31005KT 10SM SKC 18/08 A2991 Follow KESN on AV Mobile Easton / Newman Field 124.475 410-822-2817
KFMEFAA ID FME, AWOS-3, KFME 242339Z AUTO 29004KT 10SM CLR 11/05 A2994 RMK AO1 Follow KFME on AV Mobile Fort Meade / Tipton 123.925
KJWXICAO ID KJWX Fort Ritchie
KFDKFAA ID FDK, AWOS-3, KFDK 242250Z 31009KT 10SM SKC 18/M01 A2995 Follow KFDK on AV Mobile Frederick, Frederick Municipal Airport 124.875 301-600-1457
KGAIFAA ID GAI, AWOS-3, KGAI 242335Z 30009G15KT 10SM CLR 14/01 A2997 RMK AO1 Follow KGAI on AV Mobile GAITHERSBURG 128.275 301-977-2971
KHGRFAA ID HGR, ASOS, KHGR 242253Z AUTO 33003KT 10SM CLR 14/02 A2994 RMK AO2 SLP149 T01390017 Follow KHGR on AV Mobile HAGERSTOWN REGIONAL AIRPORT 126.375 301-745-3497
K2W6FAA ID 2W6, AWOS-3, K2W6 242336Z AUTO 00000KT 10SM CLR 12/05 A2994 RMK AO1 Follow K2W6 on AV Mobile LEONARDTOWN 119.575 301-373-6514
K2G4FAA ID 2G4, AWOS-3, K2G4 242335Z AUTO 28007KT 252V312 10SM CLR 07/01 A3002 RMK AO1 Follow K2G4 on AV Mobile OAKLAND 120.125 301-746-8443
KW30ICAO ID KW30 Ocean City
KN80ICAO ID KN80 Ocean City, Ocean City Municipal Airport
KOXBFAA ID OXB, ASOS, KOXB 242253Z AUTO 27005KT 10SM CLR 14/08 A2988 RMK AO2 SLP119 T01440078 TSNO Follow KOXB on AV Mobile OCEAN CITY MUNICIPAL AIRPORT 119.025 410-213-1530
KNHKFAA ID NHK, KNHK 242252Z 27008KT 10SM FEW150 BKN250 14/05 A2991 RMK AO2 SLP128 T01440050 $ Follow KNHK on AV Mobile NAS PATUXENT RIVER MD
KSBYFAA ID SBY, ASOS, KSBY 242254Z 24005KT 10SM CLR 14/08 A2989 Follow KSBY on AV Mobile SALISBURY-WICOMICO CTY REG 118.325 410-341-0868
KNUIFAA ID NUI, KNUI 242253Z AUTO 28004KT 10SM CLR 16/06 A2991 RMK AO2 SLP128 T01560056 $ Follow KNUI on AV Mobile KNUI WEBSTER FIELD ANNEX
KW29FAA ID W29, AWOS-3, KW29 242337Z AUTO 28004KT 10SM 16/05 A2991 RMK AO1 Follow KW29 on AV Mobile STEVENSVILLE 120.575 410-643-8795
K67WICAO ID K67W Stillpond Coast Guard Station
K65WICAO ID K65W Thomas Point Coast Guard Station
KDMWFAA ID DMW, AWOS-3, KDMW 242335Z AUTO 28008KT 10SM CLR 14/03 A2993 RMK AO2 Follow KDMW on AV Mobile WESTMINSTER 121.25 410-876-1281

Click on the AV Mobile icon AV Mobile icon by any station to follow that AWOS feed on AirportView.net Mobile.

Garmin aera 796 $1999 at Avionics Specialists LLC
Bose A20 Aviation Headsets $995 at Avionics Specialists LLC